Time;durP1;ratioP1;P1;durP2;ratioP2;P2;SDS_P1;SDS_P2;PMS_P1;PMS_P2;Temp;Humidity;BMP_temperature;BMP_pressure;BME280_temperature;BME280_humidity;BME280_pressure;Samples;Min_cycle;Max_cycle;Signal;HPM_P1;HPM_P2
2021/11/06 00:00:28;;;;;;;;;26.50;23.00;;;;;;;;5083300;28;11498;-77
2021/11/06 00:02:55;;;;;;;;;25.25;23.25;;;;;;;;5082020;28;12312;-76
2021/11/06 00:05:24;;;;;;;;;22.50;22.50;;;;;;;;5066285;28;11539;-75
2021/11/06 00:07:51;;;;;;;;;22.00;20.75;;;;;;;;5082974;28;11569;-76
2021/11/06 00:10:19;;;;;;;;;27.25;27.25;;;;;;;;5083898;28;12292;-76
2021/11/06 00:12:47;;;;;;;;;33.00;30.25;;;;;;;;5083408;28;11544;-75
2021/11/06 00:15:15;;;;;;;;;27.00;27.00;;;;;;;;5085069;28;11538;-75
2021/11/06 00:17:43;;;;;;;;;26.25;24.50;;;;;;;;5082919;28;11548;-77
2021/11/06 00:20:12;;;;;;;;;33.50;31.75;;;;;;;;5080771;28;11538;-78
2021/11/06 00:22:41;;;;;;;;;33.00;28.25;;;;;;;;5065391;28;12356;-77
2021/11/06 00:25:10;;;;;;;;;42.00;41.00;;;;;;;;5082001;28;11691;-76
2021/11/06 00:27:39;;;;;;;;;30.00;28.75;;;;;;;;5084580;28;11534;-77
2021/11/06 00:30:10;;;;;;;;;38.25;31.25;;;;;;;;5082761;28;11625;-79
2021/11/06 00:32:37;;;;;;;;;25.00;25.00;;;;;;;;5084444;28;11539;-78
2021/11/06 00:35:07;;;;;;;;;30.50;29.75;;;;;;;;5083620;28;11541;-77
2021/11/06 00:37:35;;;;;;;;;27.00;26.00;;;;;;;;5083207;28;11676;-78
2021/11/06 00:40:06;;;;;;;;;26.00;24.75;;;;;;;;5098222;28;11552;-77
2021/11/06 00:42:33;;;;;;;;;19.75;19.25;;;;;;;;5082080;28;11518;-75
2021/11/06 00:45:01;;;;;;;;;33.50;29.50;;;;;;;;5083360;28;11646;-77
2021/11/06 00:47:28;;;;;;;;;20.75;19.50;;;;;;;;5082432;28;11551;-76
2021/11/06 00:49:56;;;;;;;;;22.75;22.00;;;;;;;;5065579;28;11524;-76
2021/11/06 00:52:23;;;;;;;;;31.50;29.00;;;;;;;;5081523;28;12285;-76
2021/11/06 00:54:50;;;;;;;;;33.25;29.00;;;;;;;;5082649;28;11575;-77
2021/11/06 00:57:19;;;;;;;;;37.75;35.75;;;;;;;;5083795;28;11669;-77
2021/11/06 00:59:46;;;;;;;;;35.25;33.00;;;;;;;;5082579;28;12596;-76
2021/11/06 01:02:14;;;;;;;;;33.75;31.25;;;;;;;;5082918;28;11626;-77
2021/11/06 01:04:41;;;;;;;;;23.50;23.50;;;;;;;;5064798;28;12348;-77
2021/11/06 01:07:08;;;;;;;;;33.00;26.00;;;;;;;;5083561;28;11484;-76
2021/11/06 01:09:36;;;;;;;;;32.25;27.00;;;;;;;;5082144;28;11529;-76
2021/11/06 01:12:03;;;;;;;;;28.00;24.75;;;;;;;;5083103;28;11534;-76
2021/11/06 01:14:32;;;;;;;;;36.50;29.25;;;;;;;;5083061;28;11574;-77
2021/11/06 01:16:59;;;;;;;;;30.00;25.50;;;;;;;;5082243;28;11650;-76
2021/11/06 01:19:27;;;;;;;;;32.50;29.00;;;;;;;;5082872;28;11573;-76
2021/11/06 01:21:54;;;;;;;;;35.25;28.75;;;;;;;;5081968;28;11692;-76
2021/11/06 01:24:21;;;;;;;;;27.25;25.50;;;;;;;;5081659;28;11544;-77
2021/11/06 01:26:48;;;;;;;;;34.00;30.00;;;;;;;;5082083;28;11573;-76
2021/11/06 01:29:16;;;;;;;;;22.25;20.50;;;;;;;;5083144;28;11714;-77
2021/11/06 01:31:44;;;;;;;;;28.00;25.25;;;;;;;;5078615;28;11575;-76
2021/11/06 01:34:12;;;;;;;;;28.00;26.00;;;;;;;;5081916;28;11530;-76
2021/11/06 01:36:39;;;;;;;;;22.50;22.00;;;;;;;;5083698;28;11540;-77
2021/11/06 01:39:07;;;;;;;;;26.25;26.25;;;;;;;;5076235;28;11508;-77
2021/11/06 01:41:35;;;;;;;;;30.50;27.00;;;;;;;;5082885;28;11587;-78
2021/11/06 01:44:02;;;;;;;;;19.25;17.50;;;;;;;;5082306;28;11552;-75
2021/11/06 01:46:30;;;;;;;;;22.25;21.00;;;;;;;;5076565;28;11661;-74
2021/11/06 01:48:59;;;;;;;;;19.25;17.00;;;;;;;;5080481;28;11606;-75
2021/11/06 01:51:26;;;;;;;;;25.50;21.75;;;;;;;;5078498;28;11544;-75
2021/11/06 01:53:54;;;;;;;;;28.50;23.00;;;;;;;;5062167;28;11723;-75
2021/11/06 01:56:22;;;;;;;;;26.25;24.00;;;;;;;;5063931;28;11531;-75
2021/11/06 01:58:49;;;;;;;;;21.75;19.75;;;;;;;;5064603;28;11552;-75
2021/11/06 02:01:17;;;;;;;;;23.00;23.00;;;;;;;;5080542;28;11498;-76
2021/11/06 02:03:46;;;;;;;;;27.25;23.25;;;;;;;;5082482;28;11669;-75
2021/11/06 02:06:15;;;;;;;;;22.25;19.25;;;;;;;;5082488;28;11521;-74
2021/11/06 02:08:42;;;;;;;;;29.00;26.00;;;;;;;;5082022;28;11527;-75
2021/11/06 02:11:10;;;;;;;;;16.75;16.75;;;;;;;;5082273;28;11541;-73
2021/11/06 02:13:37;;;;;;;;;23.25;22.00;;;;;;;;5081988;28;11564;-75
2021/11/06 02:16:05;;;;;;;;;19.75;19.75;;;;;;;;5082448;28;11536;-75
2021/11/06 02:18:32;;;;;;;;;23.25;23.25;;;;;;;;5081383;28;11649;-75
2021/11/06 02:21:03;;;;;;;;;22.50;21.25;;;;;;;;5081819;28;11461;-78
2021/11/06 02:23:34;;;;;;;;;22.75;20.50;;;;;;;;5080961;28;11592;-77
2021/11/06 02:26:01;;;;;;;;;26.00;26.00;;;;;;;;5080813;28;11580;-78
2021/11/06 02:28:28;;;;;;;;;21.00;21.00;;;;;;;;5083116;28;11532;-77
2021/11/06 02:30:56;;;;;;;;;20.50;17.00;;;;;;;;5080811;28;11600;-77
2021/11/06 02:33:23;;;;;;;;;22.50;21.25;;;;;;;;5082947;28;11517;-77
2021/11/06 02:35:50;;;;;;;;;22.00;22.00;;;;;;;;5059391;28;11539;-77
2021/11/06 02:38:20;;;;;;;;;23.50;23.50;;;;;;;;5085783;28;11486;-77
2021/11/06 02:40:47;;;;;;;;;17.50;17.50;;;;;;;;5084721;28;11534;-76
2021/11/06 02:43:14;;;;;;;;;21.25;14.25;;;;;;;;5084007;28;11525;-77
2021/11/06 02:45:42;;;;;;;;;29.50;21.25;;;;;;;;5085462;28;12289;-77
2021/11/06 02:48:09;;;;;;;;;27.00;24.75;;;;;;;;5084939;28;11545;-77
2021/11/06 02:50:37;;;;;;;;;24.50;21.25;;;;;;;;5086059;28;11601;-76
2021/11/06 02:53:04;;;;;;;;;21.50;18.00;;;;;;;;5085037;28;11532;-76
2021/11/06 02:55:33;;;;;;;;;25.50;25.50;;;;;;;;5085504;28;11535;-76
2021/11/06 02:58:01;;;;;;;;;16.50;16.50;;;;;;;;5085803;28;11526;-77
2021/11/06 03:00:30;;;;;;;;;28.50;26.50;;;;;;;;5083529;28;11531;-78
2021/11/06 03:02:58;;;;;;;;;21.00;21.00;;;;;;;;5084198;28;11536;-77
2021/11/06 03:05:26;;;;;;;;;21.00;21.00;;;;;;;;5084693;28;11527;-77
2021/11/06 03:07:53;;;;;;;;;22.00;21.50;;;;;;;;5086184;28;11677;-76
2021/11/06 03:10:21;;;;;;;;;23.75;22.25;;;;;;;;5070516;28;11538;-76
2021/11/06 03:12:51;;;;;;;;;21.00;20.25;;;;;;;;5068065;28;11546;-77
2021/11/06 03:15:19;;;;;;;;;24.50;20.25;;;;;;;;5066717;28;11517;-77
2021/11/06 03:17:46;;;;;;;;;23.00;22.00;;;;;;;;5062626;28;11560;-77
2021/11/06 03:20:15;;;;;;;;;18.50;17.00;;;;;;;;5074811;28;12498;-76
2021/11/06 03:22:43;;;;;;;;;21.25;17.50;;;;;;;;5084037;28;11593;-76
2021/11/06 03:25:11;;;;;;;;;20.75;19.00;;;;;;;;5089622;28;11499;-75
2021/11/06 03:27:38;;;;;;;;;20.00;20.00;;;;;;;;5082478;28;11629;-76
2021/11/06 03:30:10;;;;;;;;;19.75;19.50;;;;;;;;5062722;28;12268;-76
2021/11/06 03:32:38;;;;;;;;;16.75;16.75;;;;;;;;5066228;28;11721;-76
2021/11/06 03:35:07;;;;;;;;;16.50;16.50;;;;;;;;5066884;28;11554;-78
2021/11/06 03:37:35;;;;;;;;;19.00;16.50;;;;;;;;5085416;28;11618;-75
2021/11/06 03:40:03;;;;;;;;;21.00;19.25;;;;;;;;5084320;28;12059;-78
2021/11/06 03:42:31;;;;;;;;;17.50;16.00;;;;;;;;5084759;28;11626;-76
2021/11/06 03:44:58;;;;;;;;;19.33;19.33;;;;;;;;5083778;28;11533;-77
2021/11/06 03:47:27;;;;;;;;;19.00;17.25;;;;;;;;5080939;28;11526;-77
2021/11/06 03:49:54;;;;;;;;;17.50;17.50;;;;;;;;5065167;28;11884;-76
2021/11/06 03:52:21;;;;;;;;;22.33;19.67;;;;;;;;5084709;28;11562;-77
2021/11/06 03:54:49;;;;;;;;;19.67;18.33;;;;;;;;5082356;28;11538;-75
2021/11/06 03:57:16;;;;;;;;;17.75;17.00;;;;;;;;5084330;28;11534;-76
2021/11/06 03:59:44;;;;;;;;;18.25;16.25;;;;;;;;5085521;28;11524;-76
2021/11/06 04:02:11;;;;;;;;;19.33;17.00;;;;;;;;5081930;28;11476;-77
2021/11/06 04:04:40;;;;;;;;;21.00;19.33;;;;;;;;5084625;28;11584;-78
2021/11/06 04:07:07;;;;;;;;;24.00;22.00;;;;;;;;5082276;28;11524;-77
2021/11/06 04:09:34;;;;;;;;;21.00;19.00;;;;;;;;5085605;28;11556;-77
2021/11/06 04:12:01;;;;;;;;;28.00;22.67;;;;;;;;5083001;28;12007;-76
2021/11/06 04:14:29;;;;;;;;;22.33;22.33;;;;;;;;5084497;28;12300;-76
2021/11/06 04:16:56;;;;;;;;;25.33;23.00;;;;;;;;5074853;28;11535;-77
2021/11/06 04:19:23;;;;;;;;;30.67;25.67;;;;;;;;5086713;28;11559;-77
2021/11/06 04:21:52;;;;;;;;;25.00;25.00;;;;;;;;5085168;28;8988;-79
2021/11/06 04:24:19;;;;;;;;;20.67;20.67;;;;;;;;5081797;28;11589;-78
2021/11/06 04:26:47;;;;;;;;;30.33;26.33;;;;;;;;5084540;28;11553;-76
2021/11/06 04:29:15;;;;;;;;;29.33;22.67;;;;;;;;5083465;28;11557;-78
2021/11/06 04:31:42;;;;;;;;;22.00;19.67;;;;;;;;5082020;28;11525;-77
2021/11/06 04:34:09;;;;;;;;;30.33;26.33;;;;;;;;5081260;28;11648;-77
2021/11/06 04:36:37;;;;;;;;;26.67;26.67;;;;;;;;5083606;28;11517;-77
2021/11/06 04:39:06;;;;;;;;;24.67;22.67;;;;;;;;5083850;28;11528;-77
2021/11/06 04:41:33;;;;;;;;;33.33;32.33;;;;;;;;5080772;28;11601;-76
2021/11/06 04:44:00;;;;;;;;;34.00;29.67;;;;;;;;5083718;28;11559;-77
2021/11/06 04:46:28;;;;;;;;;38.33;34.33;;;;;;;;5082971;28;11669;-78
2021/11/06 04:48:55;;;;;;;;;37.67;27.00;;;;;;;;5083638;28;11481;-75
2021/11/06 04:51:23;;;;;;;;;30.67;26.67;;;;;;;;5063678;28;11570;-74
2021/11/06 04:53:50;;;;;;;;;30.00;28.67;;;;;;;;5097548;28;11574;-74
2021/11/06 04:56:19;;;;;;;;;25.33;25.33;;;;;;;;5083906;28;11552;-74
2021/11/06 04:58:46;;;;;;;;;22.33;19.67;;;;;;;;5081542;28;12336;-73
2021/11/06 05:01:13;;;;;;;;;26.33;23.67;;;;;;;;5082676;28;11514;-74
2021/11/06 05:03:41;;;;;;;;;27.67;23.00;;;;;;;;5082146;28;11583;-74
2021/11/06 05:06:08;;;;;;;;;29.67;27.00;;;;;;;;5083283;28;11551;-75
2021/11/06 05:08:36;;;;;;;;;26.00;26.00;;;;;;;;5083688;28;11518;-74
2021/11/06 05:11:03;;;;;;;;;21.67;19.67;;;;;;;;5081740;28;11553;-75
2021/11/06 05:13:32;;;;;;;;;29.67;29.00;;;;;;;;5082751;28;11651;-77
2021/11/06 05:15:59;;;;;;;;;29.33;25.33;;;;;;;;5080922;28;11557;-75
2021/11/06 05:18:26;;;;;;;;;24.00;20.00;;;;;;;;5081395;28;11556;-72
2021/11/06 05:20:54;;;;;;;;;27.33;25.33;;;;;;;;5087510;28;11633;-74
2021/11/06 05:23:21;;;;;;;;;22.00;22.00;;;;;;;;5074904;28;11684;-74
2021/11/06 05:25:49;;;;;;;;;22.67;20.00;;;;;;;;5047492;28;11545;-73
2021/11/06 05:28:16;;;;;;;;;24.00;24.00;;;;;;;;5082151;28;11504;-76
2021/11/06 05:30:45;;;;;;;;;30.33;24.00;;;;;;;;5081516;27;11452;-77
2021/11/06 05:33:13;;;;;;;;;22.00;19.00;;;;;;;;5064131;28;11644;-78
2021/11/06 05:35:41;;;;;;;;;22.67;20.67;;;;;;;;5082631;28;11629;-78
2021/11/06 05:38:08;;;;;;;;;24.33;22.00;;;;;;;;5081677;28;11489;-79
2021/11/06 05:40:37;;;;;;;;;26.67;22.67;;;;;;;;5081983;28;11548;-78
2021/11/06 05:43:05;;;;;;;;;16.67;16.67;;;;;;;;5080677;28;12294;-77
2021/11/06 05:45:32;;;;;;;;;21.33;20.67;;;;;;;;5083994;28;11557;-77
2021/11/06 05:48:01;;;;;;;;;20.67;19.33;;;;;;;;5082363;28;12334;-78
2021/11/06 05:50:28;;;;;;;;;28.00;21.33;;;;;;;;5063793;28;11552;-77
2021/11/06 05:52:56;;;;;;;;;24.67;23.33;;;;;;;;5082945;28;11540;-77
2021/11/06 05:55:23;;;;;;;;;27.67;26.33;;;;;;;;5082456;28;12321;-76
2021/11/06 05:57:50;;;;;;;;;20.67;18.67;;;;;;;;5070262;28;11578;-76
2021/11/06 06:00:20;;;;;;;;;24.00;22.00;;;;;;;;5080244;28;11537;-77
2021/11/06 06:02:48;;;;;;;;;20.67;17.33;;;;;;;;5064797;28;13009;-77
2021/11/06 06:05:17;;;;;;;;;20.67;17.00;;;;;;;;5080784;28;12288;-76
2021/11/06 06:07:45;;;;;;;;;28.67;27.33;;;;;;;;5063015;28;11559;-75
2021/11/06 06:10:14;;;;;;;;;21.33;21.33;;;;;;;;5081700;28;11551;-74
2021/11/06 06:12:42;;;;;;;;;21.33;21.33;;;;;;;;5084458;28;11667;-75
2021/11/06 06:15:10;;;;;;;;;25.67;22.33;;;;;;;;5086355;28;11532;-78
2021/11/06 06:17:38;;;;;;;;;21.67;19.33;;;;;;;;5084644;28;11558;-83
2021/11/06 06:20:08;;;;;;;;;28.00;24.33;;;;;;;;5086923;28;11538;-77
2021/11/06 06:22:37;;;;;;;;;14.33;14.33;;;;;;;;5085223;28;11540;-78
2021/11/06 06:25:05;;;;;;;;;23.67;20.00;;;;;;;;5085826;28;11678;-80
2021/11/06 06:27:32;;;;;;;;;23.00;19.00;;;;;;;;5086273;28;11525;-77
2021/11/06 06:29:59;;;;;;;;;22.33;20.00;;;;;;;;5085290;28;11524;-77
2021/11/06 06:32:27;;;;;;;;;27.00;25.33;;;;;;;;5067600;28;11545;-75
2021/11/06 06:34:54;;;;;;;;;22.33;19.00;;;;;;;;5085554;28;11548;-77
2021/11/06 06:37:22;;;;;;;;;26.33;24.67;;;;;;;;5087635;28;12396;-78
2021/11/06 06:39:51;;;;;;;;;21.00;19.00;;;;;;;;5068711;28;11645;-79
2021/11/06 06:42:20;;;;;;;;;23.00;23.00;;;;;;;;5086675;28;11541;-78
2021/11/06 06:44:47;;;;;;;;;25.33;22.33;;;;;;;;5086603;28;11554;-76
2021/11/06 06:47:14;;;;;;;;;26.67;25.33;;;;;;;;5085647;28;11538;-77
2021/11/06 06:49:42;;;;;;;;;20.00;20.00;;;;;;;;5086902;28;11627;-78
2021/11/06 06:52:09;;;;;;;;;23.33;23.33;;;;;;;;5067526;28;12341;-77
2021/11/06 06:54:37;;;;;;;;;25.67;25.00;;;;;;;;5065955;28;11666;-75
2021/11/06 06:57:06;;;;;;;;;24.67;19.33;;;;;;;;5081817;28;8862;-76
2021/11/06 06:59:34;;;;;;;;;24.67;23.33;;;;;;;;5085317;28;8868;-78
2021/11/06 07:02:01;;;;;;;;;26.67;26.33;;;;;;;;5067032;28;11490;-76
2021/11/06 07:04:28;;;;;;;;;28.00;25.67;;;;;;;;5084813;28;11667;-76
2021/11/06 07:06:56;;;;;;;;;18.00;18.00;;;;;;;;5084525;28;12380;-75
2021/11/06 07:09:24;;;;;;;;;24.00;21.33;;;;;;;;5090622;28;11653;-74
2021/11/06 07:11:52;;;;;;;;;24.67;23.00;;;;;;;;5082353;28;11545;-76
2021/11/06 07:14:21;;;;;;;;;29.67;29.67;;;;;;;;5082529;28;8910;-75
2021/11/06 07:16:49;;;;;;;;;24.33;23.00;;;;;;;;5065016;28;11657;-77
2021/11/06 07:19:16;;;;;;;;;29.33;29.33;;;;;;;;5090907;28;11661;-77
2021/11/06 07:21:44;;;;;;;;;29.33;24.00;;;;;;;;5085836;28;11699;-77
2021/11/06 07:24:11;;;;;;;;;30.67;30.67;;;;;;;;5084840;28;11541;-78
2021/11/06 07:26:38;;;;;;;;;36.00;28.00;;;;;;;;5084696;28;11533;-80
2021/11/06 07:29:06;;;;;;;;;38.67;34.00;;;;;;;;5085725;28;11540;-78
2021/11/06 07:31:35;;;;;;;;;34.33;31.00;;;;;;;;5082463;28;11636;-78
2021/11/06 07:34:02;;;;;;;;;30.67;28.00;;;;;;;;5067257;28;11544;-84
2021/11/06 07:36:30;;;;;;;;;30.67;28.67;;;;;;;;5084425;28;11553;-84
2021/11/06 07:38:57;;;;;;;;;30.67;25.33;;;;;;;;5084799;28;11555;-74
2021/11/06 07:41:25;;;;;;;;;29.67;24.67;;;;;;;;5082701;28;11608;-74
2021/11/06 07:43:53;;;;;;;;;30.33;29.00;;;;;;;;5082081;28;11649;-75
2021/11/06 07:46:21;;;;;;;;;25.00;23.25;;;;;;;;5084164;28;12146;-79
2021/11/06 07:48:50;;;;;;;;;30.00;26.00;;;;;;;;5083372;28;11601;-77
2021/11/06 07:51:18;;;;;;;;;30.00;24.67;;;;;;;;5065919;28;11536;-79
2021/11/06 07:53:46;;;;;;;;;22.67;22.67;;;;;;;;5082760;28;11640;-77
2021/11/06 07:56:15;;;;;;;;;25.33;25.33;;;;;;;;5083379;28;11528;-79
2021/11/06 07:58:42;;;;;;;;;30.00;27.00;;;;;;;;5062030;28;11533;-76
2021/11/06 08:01:10;;;;;;;;;31.00;26.00;;;;;;;;5082682;27;11516;-78
2021/11/06 08:03:37;;;;;;;;;31.00;29.33;;;;;;;;5079363;28;11564;-82
2021/11/06 08:06:06;;;;;;;;;31.00;28.67;;;;;;;;5083464;28;8885;-86
2021/11/06 08:08:34;;;;;;;;;30.67;29.33;;;;;;;;5067567;28;11625;-80
2021/11/06 08:11:01;;;;;;;;;30.67;30.67;;;;;;;;5084542;28;11540;-85
2021/11/06 08:13:30;;;;;;;;;41.50;33.50;;;;;;;;5085501;28;11646;-85
2021/11/06 08:15:58;;;;;;;;;34.00;29.25;;;;;;;;5080601;28;11541;-86
2021/11/06 08:18:26;;;;;;;;;42.25;39.25;;;;;;;;5084029;28;11541;-83
2021/11/06 08:20:55;;;;;;;;;36.75;34.00;;;;;;;;5084088;28;11546;-83
2021/11/06 08:23:24;;;;;;;;;40.25;39.25;;;;;;;;5082370;28;11542;-77
2021/11/06 08:25:51;;;;;;;;;35.75;29.75;;;;;;;;5098871;28;11540;-83
2021/11/06 08:28:19;;;;;;;;;41.00;35.25;;;;;;;;5081935;28;11547;-79
2021/11/06 08:31:42;;;;;;;;;41.00;38.00;;;;;;;;5079707;27;14353;-79
2021/11/06 08:34:09;;;;;;;;;44.50;40.50;;;;;;;;5071417;28;11591;-82
2021/11/06 08:36:37;;;;;;;;;46.75;40.00;;;;;;;;5076511;28;12373;-76
2021/11/06 08:39:05;;;;;;;;;46.25;43.00;;;;;;;;5062738;28;11696;-78
2021/11/06 08:41:32;;;;;;;;;51.25;46.00;;;;;;;;5069113;28;12395;-78
2021/11/06 08:44:02;;;;;;;;;61.00;50.75;;;;;;;;5070989;28;11586;-75
2021/11/06 08:46:29;;;;;;;;;58.75;49.50;;;;;;;;5061891;28;12387;-76
2021/11/06 08:48:58;;;;;;;;;52.75;47.25;;;;;;;;5061513;28;11615;-76
2021/11/06 08:51:26;;;;;;;;;61.50;50.25;;;;;;;;5066830;28;11584;-76
2021/11/06 08:53:53;;;;;;;;;63.00;49.75;;;;;;;;5068414;28;11589;-77
2021/11/06 08:56:24;;;;;;;;;54.25;46.00;;;;;;;;5062334;28;11596;-75
2021/11/06 08:58:52;;;;;;;;;56.75;45.75;;;;;;;;5065296;28;11508;-76
2021/11/06 09:01:19;;;;;;;;;46.50;39.25;;;;;;;;5039794;28;11531;-76
2021/11/06 09:03:46;;;;;;;;;35.75;33.00;;;;;;;;5066099;28;11613;-78
2021/11/06 09:06:16;;;;;;;;;29.25;24.00;;;;;;;;5060687;28;11568;-74
2021/11/06 09:08:44;;;;;;;;;21.25;19.75;;;;;;;;5058149;28;11571;-76
2021/11/06 09:11:14;;;;;;;;;30.75;27.75;;;;;;;;5059456;28;11581;-78
2021/11/06 09:13:49;;;;;;;;;25.00;25.00;;;;;;;;5067756;28;11568;-71
2021/11/06 09:16:16;;;;;;;;;30.25;26.25;;;;;;;;5066252;28;11574;-76
2021/11/06 09:18:44;;;;;;;;;24.50;24.50;;;;;;;;5069382;28;11573;-76
2021/11/06 09:21:14;;;;;;;;;19.00;19.00;;;;;;;;5064657;28;11567;-74
2021/11/06 09:23:47;;;;;;;;;21.75;21.00;;;;;;;;5064504;28;11491;-72
2021/11/06 09:26:15;;;;;;;;;26.25;24.00;;;;;;;;5068469;28;11544;-76
2021/11/06 09:28:43;;;;;;;;;25.00;22.75;;;;;;;;5064738;28;11496;-72
2021/11/06 09:31:11;;;;;;;;;25.75;25.25;;;;;;;;5076282;28;11353;-73
2021/11/06 09:33:39;;;;;;;;;26.25;24.00;;;;;;;;5075118;28;11273;-74
2021/11/06 09:36:06;;;;;;;;;26.00;25.00;;;;;;;;5085312;28;11305;-73
2021/11/06 09:38:33;;;;;;;;;12.50;12.00;;;;;;;;5080090;28;11652;-75
2021/11/06 09:41:04;;;;;;;;;14.75;12.50;;;;;;;;5084946;28;10490;-76
2021/11/06 09:43:31;;;;;;;;;18.25;17.25;;;;;;;;5055221;28;10778;-77
2021/11/06 09:45:59;;;;;;;;;17.75;17.75;;;;;;;;5066319;28;10893;-73
2021/11/06 09:48:27;;;;;;;;;14.00;13.50;;;;;;;;5060525;28;10686;-75
2021/11/06 09:50:56;;;;;;;;;22.75;18.25;;;;;;;;5057205;28;10586;-74
2021/11/06 09:53:24;;;;;;;;;18.50;14.00;;;;;;;;5062271;28;11162;-73
2021/11/06 09:55:52;;;;;;;;;14.00;14.00;;;;;;;;5052692;28;10309;-72
2021/11/06 09:58:21;;;;;;;;;17.00;17.00;;;;;;;;5054224;28;10286;-72
2021/11/06 10:00:49;;;;;;;;;14.25;14.25;;;;;;;;5059388;28;10148;-76
2021/11/06 10:03:17;;;;;;;;;14.00;14.00;;;;;;;;5068711;28;10278;-73
2021/11/06 10:05:50;;;;;;;;;15.00;12.25;;;;;;;;5065896;28;10252;-74
2021/11/06 10:08:23;;;;;;;;;13.50;13.50;;;;;;;;5073938;28;10158;-79
2021/11/06 10:10:52;;;;;;;;;17.25;15.00;;;;;;;;5080735;28;10323;-74
2021/11/06 10:13:22;;;;;;;;;14.50;14.50;;;;;;;;5072270;28;10313;-74
2021/11/06 10:15:51;;;;;;;;;14.25;14.25;;;;;;;;5064147;28;10441;-72
2021/11/06 10:18:21;;;;;;;;;17.75;15.25;;;;;;;;5062174;28;10464;-70
2021/11/06 10:20:50;;;;;;;;;13.50;13.25;;;;;;;;5070603;28;10403;-73
2021/11/06 10:23:18;;;;;;;;;14.00;12.25;;;;;;;;5065021;28;10359;-73
2021/11/06 10:25:46;;;;;;;;;17.75;15.00;;;;;;;;5059528;28;10237;-72
2021/11/06 10:28:13;;;;;;;;;14.00;13.25;;;;;;;;5060566;28;10326;-72
2021/11/06 10:30:44;;;;;;;;;14.50;14.50;;;;;;;;5060186;28;10149;-72
2021/11/06 10:33:13;;;;;;;;;21.25;18.75;;;;;;;;5065985;28;10166;-76
2021/11/06 10:35:42;;;;;;;;;17.00;13.75;;;;;;;;5071782;28;10320;-77
2021/11/06 10:38:12;;;;;;;;;11.75;11.75;;;;;;;;5073058;28;10301;-75
2021/11/06 10:40:42;;;;;;;;;15.00;13.50;;;;;;;;5075556;28;10145;-75
2021/11/06 10:43:12;;;;;;;;;13.00;13.00;;;;;;;;5068054;28;10204;-74
2021/11/06 10:45:46;;;;;;;;;18.75;16.25;;;;;;;;5055498;28;10048;-75
2021/11/06 10:48:15;;;;;;;;;16.00;14.00;;;;;;;;5070494;28;10019;-75
2021/11/06 10:50:53;;;;;;;;;10.75;10.75;;;;;;;;5064469;28;10077;-75
2021/11/06 10:53:39;;;;;;;;;12.00;12.00;;;;;;;;5061850;28;10162;-75
2021/11/06 10:56:20;;;;;;;;;9.75;9.75;;;;;;;;5061634;28;9957;-75
2021/11/06 10:58:49;;;;;;;;;14.00;11.50;;;;;;;;5062424;28;9919;-74
2021/11/06 11:01:20;;;;;;;;;10.25;10.25;;;;;;;;5060569;28;9825;-74
2021/11/06 11:03:50;;;;;;;;;9.50;9.50;;;;;;;;5050431;28;10545;-75
2021/11/06 11:06:19;;;;;;;;;13.50;11.50;;;;;;;;5065181;28;9675;-74
2021/11/06 11:08:47;;;;;;;;;8.25;8.25;;;;;;;;5071444;28;9865;-73
2021/11/06 11:11:18;;;;;;;;;14.25;9.00;;;;;;;;5067644;28;9911;-74
2021/11/06 11:13:51;;;;;;;;;8.00;8.00;;;;;;;;5068321;28;9877;-75
2021/11/06 11:16:21;;;;;;;;;12.25;12.00;;;;;;;;5066632;28;9947;-75
2021/11/06 11:18:50;;;;;;;;;12.75;9.75;;;;;;;;5065712;28;9839;-74
2021/11/06 11:21:19;;;;;;;;;10.00;10.00;;;;;;;;5067773;28;9677;-75
2021/11/06 11:23:48;;;;;;;;;13.75;13.75;;;;;;;;5070838;28;9637;-74
2021/11/06 11:26:16;;;;;;;;;10.75;10.75;;;;;;;;5070940;28;9811;-74
2021/11/06 11:28:44;;;;;;;;;10.67;9.00;;;;;;;;5065176;28;9508;-74
2021/11/06 11:31:11;;;;;;;;;9.33;9.33;;;;;;;;5056940;28;9297;-73
2021/11/06 11:33:42;;;;;;;;;9.67;9.00;;;;;;;;5063744;28;9269;-75
2021/11/06 11:36:11;;;;;;;;;12.33;10.67;;;;;;;;5062443;28;9112;-75
2021/11/06 11:38:39;;;;;;;;;10.50;10.00;;;;;;;;5063120;28;9019;-74
2021/11/06 11:41:18;;;;;;;;;10.00;10.00;;;;;;;;5064787;28;8852;-73
2021/11/06 11:43:56;;;;;;;;;11.50;11.00;;;;;;;;5062157;28;9009;-74
2021/11/06 11:46:29;;;;;;;;;11.00;11.00;;;;;;;;5063012;28;8905;-78
2021/11/06 11:48:58;;;;;;;;;9.00;9.00;;;;;;;;5067200;28;9602;-75
2021/11/06 11:51:30;;;;;;;;;10.33;10.33;;;;;;;;5074787;28;8998;-72
2021/11/06 11:54:02;;;;;;;;;10.00;10.00;;;;;;;;5063705;28;8832;-74
2021/11/06 11:56:31;;;;;;;;;13.25;13.25;;;;;;;;5075215;28;8852;-74
2021/11/06 11:58:58;;;;;;;;;11.25;10.25;;;;;;;;5070282;28;8836;-75
2021/11/06 12:01:26;;;;;;;;;13.50;12.00;;;;;;;;5067052;28;8800;-74
2021/11/06 12:03:55;;;;;;;;;16.25;14.00;;;;;;;;5075075;28;8898;-73
2021/11/06 12:06:26;;;;;;;;;14.00;12.75;;;;;;;;5066006;28;8870;-78
2021/11/06 12:08:54;;;;;;;;;13.75;11.50;;;;;;;;5072996;28;9113;-72
2021/11/06 12:11:33;;;;;;;;;11.75;11.75;;;;;;;;5065624;28;8837;-75
2021/11/06 12:14:02;;;;;;;;;10.00;10.00;;;;;;;;5071690;28;8860;-73
2021/11/06 12:16:48;;;;;;;;;12.67;12.00;;;;;;;;5072047;28;8938;-73
2021/11/06 12:19:33;;;;;;;;;14.67;11.00;;;;;;;;5061956;28;9029;-72
2021/11/06 12:22:09;;;;;;;;;12.75;11.75;;;;;;;;5071570;28;8941;-75
2021/11/06 12:24:36;;;;;;;;;15.00;12.00;;;;;;;;5077429;28;8890;-73
2021/11/06 12:27:05;;;;;;;;;10.25;10.25;;;;;;;;5064084;28;9020;-74
2021/11/06 12:29:48;;;;;;;;;16.67;12.67;;;;;;;;5066653;28;8972;-73
2021/11/06 12:32:33;;;;;;;;;9.75;9.00;;;;;;;;5070537;28;8903;-76
2021/11/06 12:35:04;;;;;;;;;9.50;8.25;;;;;;;;5059158;28;9470;-73
2021/11/06 12:37:51;;;;;;;;;11.25;8.00;;;;;;;;5063779;28;9628;-73
2021/11/06 12:40:23;;;;;;;;;10.75;10.75;;;;;;;;5067866;28;8976;-76
2021/11/06 12:43:12;;;;;;;;;11.25;9.00;;;;;;;;5058791;28;8963;-75
2021/11/06 12:45:40;;;;;;;;;8.50;8.50;;;;;;;;5044205;28;8923;-76
2021/11/06 12:48:10;;;;;;;;;9.25;9.25;;;;;;;;5061156;28;8885;-78
2021/11/06 12:50:38;;;;;;;;;7.50;7.50;;;;;;;;5062989;28;8894;-77
2021/11/06 12:53:07;;;;;;;;;6.00;6.00;;;;;;;;5058456;28;9607;-73
2021/11/06 12:55:34;;;;;;;;;5.50;5.50;;;;;;;;5058046;28;8868;-75
2021/11/06 12:58:04;;;;;;;;;8.50;7.50;;;;;;;;5062428;28;8950;-74
2021/11/06 13:00:33;;;;;;;;;8.25;5.00;;;;;;;;5061726;28;8903;-73
2021/11/06 13:03:02;;;;;;;;;4.25;4.25;;;;;;;;5061896;28;8841;-73
2021/11/06 13:05:40;;;;;;;;;4.25;3.75;;;;;;;;5063275;28;8938;-73
2021/11/06 13:08:27;;;;;;;;;3.50;3.50;;;;;;;;5062476;28;8838;-70
2021/11/06 13:10:57;;;;;;;;;3.50;3.50;;;;;;;;5058439;28;8982;-71
2021/11/06 13:13:28;;;;;;;;;3.25;3.25;;;;;;;;5061898;28;9623;-73
2021/11/06 13:15:56;;;;;;;;;3.00;3.00;;;;;;;;5061333;28;8870;-71
2021/11/06 13:18:24;;;;;;;;;4.00;4.00;;;;;;;;5067453;28;8960;-73
2021/11/06 13:20:54;;;;;;;;;4.00;4.00;;;;;;;;5065180;28;8850;-70
2021/11/06 13:23:23;;;;;;;;;4.00;4.00;;;;;;;;5066790;28;9659;-71
2021/11/06 13:25:51;;;;;;;;;6.67;4.00;;;;;;;;5067914;28;9027;-70
2021/11/06 13:28:22;;;;;;;;;4.67;4.67;;;;;;;;5065450;28;9106;-72
2021/11/06 13:30:51;;;;;;;;;7.33;4.67;;;;;;;;5065659;28;9023;-74
2021/11/06 13:33:23;;;;;;;;;5.00;5.00;;;;;;;;5065430;28;9166;-74
2021/11/06 13:35:53;;;;;;;;;4.00;4.00;;;;;;;;5066739;28;9262;-71
2021/11/06 13:38:32;;;;;;;;;4.67;4.67;;;;;;;;5062020;28;9188;-72
2021/11/06 13:41:02;;;;;;;;;5.00;4.00;;;;;;;;5064869;28;10087;-72
2021/11/06 13:43:31;;;;;;;;;4.00;4.00;;;;;;;;5066792;28;9146;-73
2021/11/06 13:46:11;;;;;;;;;9.00;5.00;;;;;;;;5064862;28;9034;-72
2021/11/06 13:48:41;;;;;;;;;3.67;3.67;;;;;;;;5067002;28;9105;-70
2021/11/06 13:51:18;;;;;;;;;5.00;3.00;;;;;;;;5065237;28;9003;-72
2021/11/06 13:54:15;;;;;;;;;4.00;4.00;;;;;;;;5065063;28;9257;-69
2021/11/06 13:57:08;;;;;;;;;5.00;5.00;;;;;;;;5064572;28;9460;-70
2021/11/06 13:59:42;;;;;;;;;4.67;4.67;;;;;;;;5051175;28;9424;-72
2021/11/06 14:02:11;;;;;;;;;7.00;4.67;;;;;;;;5061764;28;9283;-74
2021/11/06 14:04:45;;;;;;;;;5.00;5.00;;;;;;;;5064963;28;9255;-73
2021/11/06 14:07:14;;;;;;;;;8.00;7.00;;;;;;;;5063789;28;10007;-74
2021/11/06 14:09:53;;;;;;;;;6.33;6.33;;;;;;;;5066635;28;9190;-73
2021/11/06 14:12:32;;;;;;;;;10.67;7.00;;;;;;;;5065284;28;9319;-73
2021/11/06 14:15:00;;;;;;;;;7.00;7.00;;;;;;;;5064663;28;9396;-73
2021/11/06 14:17:27;;;;;;;;;7.00;7.00;;;;;;;;5065125;28;9416;-73
2021/11/06 14:19:58;;;;;;;;;5.00;5.00;;;;;;;;5063545;28;9324;-73
2021/11/06 14:22:28;;;;;;;;;10.00;8.25;;;;;;;;5065145;28;9270;-73
2021/11/06 14:24:59;;;;;;;;;8.75;8.75;;;;;;;;5072454;28;10167;-74
2021/11/06 14:27:27;;;;;;;;;8.75;8.75;;;;;;;;5066166;28;9568;-73
2021/11/06 14:30:06;;;;;;;;;8.00;8.00;;;;;;;;5063368;28;9538;-73
2021/11/06 14:32:34;;;;;;;;;5.67;5.67;;;;;;;;5043503;28;9296;-73
2021/11/06 14:35:07;;;;;;;;;4.33;4.33;;;;;;;;5044758;28;9335;-73